Pilotenausbildung PDF Drucken E-Mail

Im Rahmen einer Ausbildung können folgende Qualifikationen/Berechtigungen erworben werden:

  • Privatpilot (PPL-A)
  • Berufspilot (CPL)
  • Segelflugschein (PPL-C)
  • Hubschrauberschein (PPL-H)
  • Ballonfahrer (PPL-D)
  • Instrumentenflug (IFR)
  • Sportpilot (SPL)
  • Kunstflug


Mehr Informationen erhalten Sie, wenn Sie auf die jeweiligen Firmennamen klicken.

Motorflug R, CH, Sch Air Hamburg

R, CH, Sch, K Canair

R, CH, Sch Flugschule Hamburg

R, CH, Sch, K Hanseair

Sch Aeroclub Hamburg (Motorflug) e.V.

Sch

Vereinigung Hanseatischer Fliegerfreunde e.V.

Hubschrauber R, CH, Sch CityCopter

R, CH, Sch Nordcopters GmbH
Segelflugzeug Sch Luftsportverein Kreis Pinneberg e.V.

Sch Segelflug-Club Uetersen e.V.
Bannerwerbung
Aerial Sign
Ultraleichflug R, CH, Sch

JoyAIR Ultraleicht (Sportpilot SPL)

Ballonfahrt
Balloon Adventure Hamburg
 

Zufallsbild

Aktuelle Termine

Mo Di Mi Do Fr Sa So
28 29 30 31 1 2 3
4 5 6 7 8 9 10
11 12 13 14 15 16 17
18 19 20 21 22 23 24
25 26 27 28 29 30 1

Pilotenwetter

[source: ADDS]
METAR
EDDH 201050Z 24009KT 200V280 9999 SCT014 SCT027 BKN040 14/11 Q1017 TEMPO BKN012 =
TAF
TAF EDDH 200500Z 2006/2112 24005KT 9999 BKN040 TEMPO 2006/2015 4500 -RADZ BKN012 PROB30 TEMPO 2006/2010 2500 RADZ BKN007 BECMG 2007/2010 26010KT BECMG 2015/2018 25005KT TEMPO 2102/2108 3000 BR =